sensor_id;sensor_type;location;lat;lon;timestamp;temperature;humidity
18365;DHT22;9309;52.126;11.616;2023-05-01T00:01:58;7.00;64.40
18365;DHT22;9309;52.126;11.616;2023-05-01T00:04:26;6.90;64.30
18365;DHT22;9309;52.126;11.616;2023-05-01T00:06:54;6.80;65.00
18365;DHT22;9309;52.126;11.616;2023-05-01T00:09:21;6.80;64.90
18365;DHT22;9309;52.126;11.616;2023-05-01T00:11:48;6.90;64.60
18365;DHT22;9309;52.126;11.616;2023-05-01T00:14:14;6.90;65.30
18365;DHT22;9309;52.126;11.616;2023-05-01T00:16:41;6.80;65.70
18365;DHT22;9309;52.126;11.616;2023-05-01T00:19:08;6.80;66.00
18365;DHT22;9309;52.126;11.616;2023-05-01T00:21:36;6.70;66.50
18365;DHT22;9309;52.126;11.616;2023-05-01T00:24:05;6.70;66.10
18365;DHT22;9309;52.126;11.616;2023-05-01T00:26:31;6.80;65.80
18365;DHT22;9309;52.126;11.616;2023-05-01T00:28:58;6.70;66.00
18365;DHT22;9309;52.126;11.616;2023-05-01T00:31:25;6.60;66.80
18365;DHT22;9309;52.126;11.616;2023-05-01T00:33:51;6.50;66.90
18365;DHT22;9309;52.126;11.616;2023-05-01T00:36:18;6.50;66.80
18365;DHT22;9309;52.126;11.616;2023-05-01T00:38:45;6.50;67.00
18365;DHT22;9309;52.126;11.616;2023-05-01T00:41:13;6.40;66.40
18365;DHT22;9309;52.126;11.616;2023-05-01T00:43:41;6.30;67.30
18365;DHT22;9309;52.126;11.616;2023-05-01T00:46:08;6.30;67.00
18365;DHT22;9309;52.126;11.616;2023-05-01T00:48:35;6.40;66.40
18365;DHT22;9309;52.126;11.616;2023-05-01T00:51:04;6.20;66.40
18365;DHT22;9309;52.126;11.616;2023-05-01T00:53:32;6.30;67.00
18365;DHT22;9309;52.126;11.616;2023-05-01T00:55:59;6.30;67.20
18365;DHT22;9309;52.126;11.616;2023-05-01T00:58:28;6.10;67.00
18365;DHT22;9309;52.126;11.616;2023-05-01T01:00:54;6.00;67.60
18365;DHT22;9309;52.126;11.616;2023-05-01T01:03:21;6.10;67.90
18365;DHT22;9309;52.126;11.616;2023-05-01T01:05:52;6.20;68.10
18365;DHT22;9309;52.126;11.616;2023-05-01T01:08:23;6.20;67.80
18365;DHT22;9309;52.126;11.616;2023-05-01T01:10:54;6.20;68.30
18365;DHT22;9309;52.126;11.616;2023-05-01T01:13:31;6.00;68.60
18365;DHT22;9309;52.126;11.616;2023-05-01T01:16:08;6.00;69.30
18365;DHT22;9309;52.126;11.616;2023-05-01T01:18:47;5.80;69.80
18365;DHT22;9309;52.126;11.616;2023-05-01T01:21:20;5.70;70.30
18365;DHT22;9309;52.126;11.616;2023-05-01T01:24:11;5.80;70.50
18365;DHT22;9309;52.126;11.616;2023-05-01T01:30:43;5.60;70.80
18365;DHT22;9309;52.126;11.616;2023-05-01T01:33:35;5.70;71.10
18365;DHT22;9309;52.126;11.616;2023-05-01T01:36:09;5.40;72.40
18365;DHT22;9309;52.126;11.616;2023-05-01T01:38:42;5.30;72.90
18365;DHT22;9309;52.126;11.616;2023-05-01T01:41:12;5.20;73.50
18365;DHT22;9309;52.126;11.616;2023-05-01T01:43:43;5.40;73.10
18365;DHT22;9309;52.126;11.616;2023-05-01T01:46:11;5.50;72.70
18365;DHT22;9309;52.126;11.616;2023-05-01T01:48:45;5.40;73.20
18365;DHT22;9309;52.126;11.616;2023-05-01T01:51:17;5.30;73.60
18365;DHT22;9309;52.126;11.616;2023-05-01T01:53:48;5.40;73.00
18365;DHT22;9309;52.126;11.616;2023-05-01T01:56:17;5.20;73.40
18365;DHT22;9309;52.126;11.616;2023-05-01T01:58:46;4.80;75.50
18365;DHT22;9309;52.126;11.616;2023-05-01T02:01:14;4.60;76.80
18365;DHT22;9309;52.126;11.616;2023-05-01T02:03:44;4.40;77.10
18365;DHT22;9309;52.126;11.616;2023-05-01T02:06:12;4.60;76.80
18365;DHT22;9309;52.126;11.616;2023-05-01T02:08:41;4.90;75.00
18365;DHT22;9309;52.126;11.616;2023-05-01T02:11:10;5.10;74.00
18365;DHT22;9309;52.126;11.616;2023-05-01T02:13:40;5.10;73.30
18365;DHT22;9309;52.126;11.616;2023-05-01T02:16:08;5.00;74.40
18365;DHT22;9309;52.126;11.616;2023-05-01T02:18:35;5.10;73.70
18365;DHT22;9309;52.126;11.616;2023-05-01T02:21:05;5.10;73.60
18365;DHT22;9309;52.126;11.616;2023-05-01T02:23:35;5.10;73.90
18365;DHT22;9309;52.126;11.616;2023-05-01T02:26:03;5.00;74.10
18365;DHT22;9309;52.126;11.616;2023-05-01T02:28:31;4.80;74.90
18365;DHT22;9309;52.126;11.616;2023-05-01T02:30:59;4.60;75.40
18365;DHT22;9309;52.126;11.616;2023-05-01T02:33:26;4.80;75.00
18365;DHT22;9309;52.126;11.616;2023-05-01T02:35:53;4.90;74.90
18365;DHT22;9309;52.126;11.616;2023-05-01T02:38:22;4.50;76.10
18365;DHT22;9309;52.126;11.616;2023-05-01T02:40:51;4.50;76.60
18365;DHT22;9309;52.126;11.616;2023-05-01T02:43:20;4.70;75.90
18365;DHT22;9309;52.126;11.616;2023-05-01T02:45:49;4.70;75.40
18365;DHT22;9309;52.126;11.616;2023-05-01T02:48:19;4.90;74.70
18365;DHT22;9309;52.126;11.616;2023-05-01T02:50:47;4.80;75.10
18365;DHT22;9309;52.126;11.616;2023-05-01T02:53:15;4.70;75.90
18365;DHT22;9309;52.126;11.616;2023-05-01T02:55:50;4.50;76.70
18365;DHT22;9309;52.126;11.616;2023-05-01T02:58:17;4.70;76.10
18365;DHT22;9309;52.126;11.616;2023-05-01T03:00:45;4.80;75.00
18365;DHT22;9309;52.126;11.616;2023-05-01T03:03:11;4.90;74.90
18365;DHT22;9309;52.126;11.616;2023-05-01T03:05:38;4.90;74.80
18365;DHT22;9309;52.126;11.616;2023-05-01T03:08:07;4.80;74.90
18365;DHT22;9309;52.126;11.616;2023-05-01T03:10:34;4.80;75.30
18365;DHT22;9309;52.126;11.616;2023-05-01T03:13:02;4.80;75.60
18365;DHT22;9309;52.126;11.616;2023-05-01T03:15:29;4.80;75.30
18365;DHT22;9309;52.126;11.616;2023-05-01T03:17:55;4.70;75.80
18365;DHT22;9309;52.126;11.616;2023-05-01T03:20:22;4.50;76.40
18365;DHT22;9309;52.126;11.616;2023-05-01T03:22:48;4.40;77.10
18365;DHT22;9309;52.126;11.616;2023-05-01T03:25:15;4.60;76.50
18365;DHT22;9309;52.126;11.616;2023-05-01T03:27:42;4.50;77.10
18365;DHT22;9309;52.126;11.616;2023-05-01T03:30:11;4.70;76.40
18365;DHT22;9309;52.126;11.616;2023-05-01T03:32:40;4.50;76.90
18365;DHT22;9309;52.126;11.616;2023-05-01T03:35:14;4.50;77.00
18365;DHT22;9309;52.126;11.616;2023-05-01T03:37:41;4.50;76.40
18365;DHT22;9309;52.126;11.616;2023-05-01T03:40:08;4.30;77.00
18365;DHT22;9309;52.126;11.616;2023-05-01T03:43:09;4.20;77.90
18365;DHT22;9309;52.126;11.616;2023-05-01T03:45:37;4.30;77.40
18365;DHT22;9309;52.126;11.616;2023-05-01T03:48:04;4.50;76.10
18365;DHT22;9309;52.126;11.616;2023-05-01T03:50:31;4.60;75.90
18365;DHT22;9309;52.126;11.616;2023-05-01T03:52:58;4.60;75.90
18365;DHT22;9309;52.126;11.616;2023-05-01T03:55:25;4.50;76.00
18365;DHT22;9309;52.126;11.616;2023-05-01T03:57:51;4.50;75.60
18365;DHT22;9309;52.126;11.616;2023-05-01T04:00:19;4.30;77.20
18365;DHT22;9309;52.126;11.616;2023-05-01T04:02:47;4.40;77.70
18365;DHT22;9309;52.126;11.616;2023-05-01T04:05:18;4.30;78.20
18365;DHT22;9309;52.126;11.616;2023-05-01T04:07:50;4.40;77.60
18365;DHT22;9309;52.126;11.616;2023-05-01T04:10:16;4.50;77.20
18365;DHT22;9309;52.126;11.616;2023-05-01T04:12:52;4.40;77.20
18365;DHT22;9309;52.126;11.616;2023-05-01T04:15:18;4.20;79.20
18365;DHT22;9309;52.126;11.616;2023-05-01T04:17:48;4.40;78.30
18365;DHT22;9309;52.126;11.616;2023-05-01T04:20:16;4.70;76.70
18365;DHT22;9309;52.126;11.616;2023-05-01T04:22:44;4.40;76.60
18365;DHT22;9309;52.126;11.616;2023-05-01T04:25:10;4.50;77.10
18365;DHT22;9309;52.126;11.616;2023-05-01T04:27:37;4.70;76.50
18365;DHT22;9309;52.126;11.616;2023-05-01T04:30:05;4.70;76.00
18365;DHT22;9309;52.126;11.616;2023-05-01T04:32:32;4.90;75.50
18365;DHT22;9309;52.126;11.616;2023-05-01T04:35:01;4.60;76.10
18365;DHT22;9309;52.126;11.616;2023-05-01T04:37:29;4.60;76.70
18365;DHT22;9309;52.126;11.616;2023-05-01T04:39:58;4.90;75.70
18365;DHT22;9309;52.126;11.616;2023-05-01T04:42:29;5.20;75.00
18365;DHT22;9309;52.126;11.616;2023-05-01T04:44:56;5.30;75.10
18365;DHT22;9309;52.126;11.616;2023-05-01T04:47:26;5.30;74.20
18365;DHT22;9309;52.126;11.616;2023-05-01T04:49:52;5.00;75.90
18365;DHT22;9309;52.126;11.616;2023-05-01T04:52:20;5.10;76.50
18365;DHT22;9309;52.126;11.616;2023-05-01T04:54:52;5.40;75.50
18365;DHT22;9309;52.126;11.616;2023-05-01T04:57:20;5.40;75.00
18365;DHT22;9309;52.126;11.616;2023-05-01T04:59:48;5.50;74.30
18365;DHT22;9309;52.126;11.616;2023-05-01T05:02:14;5.40;75.30
18365;DHT22;9309;52.126;11.616;2023-05-01T05:04:41;5.50;75.00
18365;DHT22;9309;52.126;11.616;2023-05-01T05:07:08;5.60;75.10
18365;DHT22;9309;52.126;11.616;2023-05-01T05:09:59;5.70;74.60
18365;DHT22;9309;52.126;11.616;2023-05-01T05:12:25;6.00;73.70
18365;DHT22;9309;52.126;11.616;2023-05-01T05:14:52;6.50;72.30
18365;DHT22;9309;52.126;11.616;2023-05-01T05:17:19;6.90;70.50
18365;DHT22;9309;52.126;11.616;2023-05-01T05:19:46;7.10;67.50
18365;DHT22;9309;52.126;11.616;2023-05-01T05:22:12;6.80;67.80
18365;DHT22;9309;52.126;11.616;2023-05-01T05:25:01;6.80;66.50
18365;DHT22;9309;52.126;11.616;2023-05-01T05:27:29;6.50;67.20
18365;DHT22;9309;52.126;11.616;2023-05-01T05:30:01;6.50;67.90
18365;DHT22;9309;52.126;11.616;2023-05-01T05:32:28;6.70;67.30
18365;DHT22;9309;52.126;11.616;2023-05-01T05:34:55;7.10;65.50
18365;DHT22;9309;52.126;11.616;2023-05-01T05:37:23;7.20;65.70
18365;DHT22;9309;52.126;11.616;2023-05-01T05:39:51;7.30;63.40
18365;DHT22;9309;52.126;11.616;2023-05-01T05:42:19;7.60;62.90
18365;DHT22;9309;52.126;11.616;2023-05-01T05:44:46;7.70;62.20
18365;DHT22;9309;52.126;11.616;2023-05-01T05:47:13;7.60;60.70
18365;DHT22;9309;52.126;11.616;2023-05-01T05:49:40;7.60;61.30
18365;DHT22;9309;52.126;11.616;2023-05-01T05:52:07;7.80;61.30
18365;DHT22;9309;52.126;11.616;2023-05-01T05:54:35;7.90;61.30
18365;DHT22;9309;52.126;11.616;2023-05-01T05:57:01;7.90;61.00
18365;DHT22;9309;52.126;11.616;2023-05-01T05:59:30;7.70;61.20
18365;DHT22;9309;52.126;11.616;2023-05-01T06:01:57;7.60;61.80
18365;DHT22;9309;52.126;11.616;2023-05-01T06:04:23;7.80;62.00
18365;DHT22;9309;52.126;11.616;2023-05-01T06:06:50;7.60;60.90
18365;DHT22;9309;52.126;11.616;2023-05-01T06:09:17;7.50;62.30
18365;DHT22;9309;52.126;11.616;2023-05-01T06:11:44;7.80;60.90
18365;DHT22;9309;52.126;11.616;2023-05-01T06:14:11;7.70;60.80
18365;DHT22;9309;52.126;11.616;2023-05-01T06:16:39;8.00;58.90
18365;DHT22;9309;52.126;11.616;2023-05-01T06:19:06;8.00;58.60
18365;DHT22;9309;52.126;11.616;2023-05-01T06:21:35;7.80;59.40
18365;DHT22;9309;52.126;11.616;2023-05-01T06:24:03;8.00;58.30
18365;DHT22;9309;52.126;11.616;2023-05-01T06:26:50;8.20;57.80
18365;DHT22;9309;52.126;11.616;2023-05-01T06:29:17;8.10;57.70
18365;DHT22;9309;52.126;11.616;2023-05-01T06:31:45;8.10;57.90
18365;DHT22;9309;52.126;11.616;2023-05-01T06:34:12;8.10;58.30
18365;DHT22;9309;52.126;11.616;2023-05-01T06:36:49;8.20;58.30
18365;DHT22;9309;52.126;11.616;2023-05-01T06:39:19;8.20;58.30
18365;DHT22;9309;52.126;11.616;2023-05-01T06:41:48;8.40;58.50
18365;DHT22;9309;52.126;11.616;2023-05-01T06:44:15;8.50;58.80
18365;DHT22;9309;52.126;11.616;2023-05-01T06:46:42;8.40;58.60
18365;DHT22;9309;52.126;11.616;2023-05-01T06:49:10;8.40;58.10
18365;DHT22;9309;52.126;11.616;2023-05-01T06:51:37;8.60;58.60
18365;DHT22;9309;52.126;11.616;2023-05-01T06:54:04;8.70;56.90
18365;DHT22;9309;52.126;11.616;2023-05-01T06:56:31;8.60;57.50
18365;DHT22;9309;52.126;11.616;2023-05-01T06:58:58;8.90;57.10
18365;DHT22;9309;52.126;11.616;2023-05-01T07:01:24;9.30;56.10
18365;DHT22;9309;52.126;11.616;2023-05-01T07:03:51;9.30;55.40
18365;DHT22;9309;52.126;11.616;2023-05-01T07:06:19;9.50;56.10
18365;DHT22;9309;52.126;11.616;2023-05-01T07:08:46;9.70;55.70
18365;DHT22;9309;52.126;11.616;2023-05-01T07:11:13;9.50;55.70
18365;DHT22;9309;52.126;11.616;2023-05-01T07:13:40;9.50;56.30
18365;DHT22;9309;52.126;11.616;2023-05-01T07:16:07;9.70;55.70
18365;DHT22;9309;52.126;11.616;2023-05-01T07:18:33;9.90;55.30
18365;DHT22;9309;52.126;11.616;2023-05-01T07:21:00;10.00;55.80
18365;DHT22;9309;52.126;11.616;2023-05-01T07:23:28;9.90;53.80
18365;DHT22;9309;52.126;11.616;2023-05-01T07:25:55;9.50;54.30
18365;DHT22;9309;52.126;11.616;2023-05-01T07:28:21;9.50;55.20
18365;DHT22;9309;52.126;11.616;2023-05-01T07:30:48;9.90;54.90
18365;DHT22;9309;52.126;11.616;2023-05-01T07:33:15;10.20;54.10
18365;DHT22;9309;52.126;11.616;2023-05-01T07:35:41;10.60;53.80
18365;DHT22;9309;52.126;11.616;2023-05-01T07:38:08;10.80;53.50
18365;DHT22;9309;52.126;11.616;2023-05-01T07:40:36;10.50;53.90
18365;DHT22;9309;52.126;11.616;2023-05-01T07:43:03;10.20;54.50
18365;DHT22;9309;52.126;11.616;2023-05-01T07:45:31;10.10;55.70
18365;DHT22;9309;52.126;11.616;2023-05-01T07:47:58;10.20;55.90
18365;DHT22;9309;52.126;11.616;2023-05-01T07:50:25;10.60;54.80
18365;DHT22;9309;52.126;11.616;2023-05-01T07:52:51;10.70;54.30
18365;DHT22;9309;52.126;11.616;2023-05-01T07:55:20;10.50;53.40
18365;DHT22;9309;52.126;11.616;2023-05-01T07:57:48;10.70;54.00
18365;DHT22;9309;52.126;11.616;2023-05-01T08:00:16;10.80;54.10
18365;DHT22;9309;52.126;11.616;2023-05-01T08:02:43;11.00;53.40
18365;DHT22;9309;52.126;11.616;2023-05-01T08:05:09;11.30;53.10
18365;DHT22;9309;52.126;11.616;2023-05-01T08:07:36;11.50;53.20
18365;DHT22;9309;52.126;11.616;2023-05-01T08:10:03;11.80;53.40
18365;DHT22;9309;52.126;11.616;2023-05-01T08:12:30;12.20;51.40
18365;DHT22;9309;52.126;11.616;2023-05-01T08:14:58;12.30;51.10
18365;DHT22;9309;52.126;11.616;2023-05-01T08:17:25;12.30;51.60
18365;DHT22;9309;52.126;11.616;2023-05-01T08:19:52;12.30;51.80
18365;DHT22;9309;52.126;11.616;2023-05-01T08:22:21;12.70;51.30
18365;DHT22;9309;52.126;11.616;2023-05-01T08:24:47;13.10;50.20
18365;DHT22;9309;52.126;11.616;2023-05-01T08:27:14;13.10;49.50
18365;DHT22;9309;52.126;11.616;2023-05-01T08:29:41;13.30;48.80
18365;DHT22;9309;52.126;11.616;2023-05-01T08:32:09;13.20;49.30
18365;DHT22;9309;52.126;11.616;2023-05-01T08:34:35;13.60;48.60
18365;DHT22;9309;52.126;11.616;2023-05-01T08:37:02;13.60;46.90
18365;DHT22;9309;52.126;11.616;2023-05-01T08:39:29;13.90;46.70
18365;DHT22;9309;52.126;11.616;2023-05-01T08:41:55;13.80;46.00
18365;DHT22;9309;52.126;11.616;2023-05-01T08:44:24;14.10;44.80
18365;DHT22;9309;52.126;11.616;2023-05-01T08:46:58;14.10;44.90
18365;DHT22;9309;52.126;11.616;2023-05-01T08:49:32;14.30;44.80
18365;DHT22;9309;52.126;11.616;2023-05-01T08:52:01;14.60;45.50
18365;DHT22;9309;52.126;11.616;2023-05-01T08:54:30;14.40;45.00
18365;DHT22;9309;52.126;11.616;2023-05-01T08:57:00;14.30;46.00
18365;DHT22;9309;52.126;11.616;2023-05-01T08:59:29;14.80;44.90
18365;DHT22;9309;52.126;11.616;2023-05-01T09:01:59;15.00;44.60
18365;DHT22;9309;52.126;11.616;2023-05-01T09:04:30;15.10;43.60
18365;DHT22;9309;52.126;11.616;2023-05-01T09:06:58;14.90;42.70
18365;DHT22;9309;52.126;11.616;2023-05-01T09:09:26;14.90;43.30
18365;DHT22;9309;52.126;11.616;2023-05-01T09:11:53;15.40;42.90
18365;DHT22;9309;52.126;11.616;2023-05-01T09:14:20;15.60;41.60
18365;DHT22;9309;52.126;11.616;2023-05-01T09:16:47;15.70;40.30
18365;DHT22;9309;52.126;11.616;2023-05-01T09:19:14;15.20;41.90
18365;DHT22;9309;52.126;11.616;2023-05-01T09:21:42;15.50;40.90
18365;DHT22;9309;52.126;11.616;2023-05-01T09:24:09;14.80;41.10
18365;DHT22;9309;52.126;11.616;2023-05-01T09:26:38;14.20;42.30
18365;DHT22;9309;52.126;11.616;2023-05-01T09:29:06;14.40;43.60
18365;DHT22;9309;52.126;11.616;2023-05-01T09:31:35;14.80;43.30
18365;DHT22;9309;52.126;11.616;2023-05-01T09:34:02;15.60;42.80
18365;DHT22;9309;52.126;11.616;2023-05-01T09:36:30;16.50;40.20
18365;DHT22;9309;52.126;11.616;2023-05-01T09:39:00;17.00;39.10
18365;DHT22;9309;52.126;11.616;2023-05-01T09:41:27;17.00;39.20
18365;DHT22;9309;52.126;11.616;2023-05-01T09:43:56;17.30;38.20
18365;DHT22;9309;52.126;11.616;2023-05-01T09:46:40;16.80;39.10
18365;DHT22;9309;52.126;11.616;2023-05-01T09:49:07;17.30;39.20
18365;DHT22;9309;52.126;11.616;2023-05-01T09:51:34;17.80;38.00
18365;DHT22;9309;52.126;11.616;2023-05-01T09:54:02;18.10;37.60
18365;DHT22;9309;52.126;11.616;2023-05-01T09:56:30;18.20;36.80
18365;DHT22;9309;52.126;11.616;2023-05-01T09:58:58;18.00;35.60
18365;DHT22;9309;52.126;11.616;2023-05-01T10:01:42;18.20;36.60
18365;DHT22;9309;52.126;11.616;2023-05-01T10:04:09;17.80;35.50
18365;DHT22;9309;52.126;11.616;2023-05-01T10:06:36;17.40;36.70
18365;DHT22;9309;52.126;11.616;2023-05-01T10:09:04;17.80;36.90
18365;DHT22;9309;52.126;11.616;2023-05-01T10:11:53;18.00;36.40
18365;DHT22;9309;52.126;11.616;2023-05-01T10:14:22;17.80;36.40
18365;DHT22;9309;52.126;11.616;2023-05-01T10:16:52;17.40;36.40
18365;DHT22;9309;52.126;11.616;2023-05-01T10:19:21;17.60;36.90
18365;DHT22;9309;52.126;11.616;2023-05-01T10:21:52;18.10;37.30
18365;DHT22;9309;52.126;11.616;2023-05-01T10:24:19;18.50;36.40
18365;DHT22;9309;52.126;11.616;2023-05-01T10:26:47;19.50;35.00
18365;DHT22;9309;52.126;11.616;2023-05-01T10:29:14;20.80;33.90
18365;DHT22;9309;52.126;11.616;2023-05-01T10:31:41;22.40;30.80
18365;DHT22;9309;52.126;11.616;2023-05-01T10:34:15;22.10;30.60
18365;DHT22;9309;52.126;11.616;2023-05-01T10:36:44;21.10;31.20
18365;DHT22;9309;52.126;11.616;2023-05-01T10:39:31;21.20;32.10
18365;DHT22;9309;52.126;11.616;2023-05-01T10:42:05;21.50;31.60
18365;DHT22;9309;52.126;11.616;2023-05-01T10:44:36;21.20;32.70
18365;DHT22;9309;52.126;11.616;2023-05-01T10:47:42;21.30;32.80
18365;DHT22;9309;52.126;11.616;2023-05-01T10:50:11;21.60;32.90
18365;DHT22;9309;52.126;11.616;2023-05-01T10:53:17;21.90;32.20
18365;DHT22;9309;52.126;11.616;2023-05-01T10:55:46;23.90;30.10
18365;DHT22;9309;52.126;11.616;2023-05-01T11:01:27;26.00;27.10
18365;DHT22;9309;52.126;11.616;2023-05-01T11:03:54;25.70;27.50
18365;DHT22;9309;52.126;11.616;2023-05-01T11:06:22;23.50;30.10
18365;DHT22;9309;52.126;11.616;2023-05-01T11:08:49;22.70;31.10
18365;DHT22;9309;52.126;11.616;2023-05-01T11:11:44;23.40;30.60
18365;DHT22;9309;52.126;11.616;2023-05-01T11:16:44;23.60;30.50
18365;DHT22;9309;52.126;11.616;2023-05-01T11:19:45;23.80;30.40
18365;DHT22;9309;52.126;11.616;2023-05-01T11:22:16;24.60;29.30
18365;DHT22;9309;52.126;11.616;2023-05-01T11:24:44;23.50;29.90
18365;DHT22;9309;52.126;11.616;2023-05-01T11:27:14;23.20;30.60
18365;DHT22;9309;52.126;11.616;2023-05-01T11:29:43;23.10;30.40
18365;DHT22;9309;52.126;11.616;2023-05-01T11:32:18;24.00;29.40
18365;DHT22;9309;52.126;11.616;2023-05-01T11:34:45;24.50;29.40
18365;DHT22;9309;52.126;11.616;2023-05-01T11:37:14;26.00;28.20
18365;DHT22;9309;52.126;11.616;2023-05-01T11:39:48;28.60;25.20
18365;DHT22;9309;52.126;11.616;2023-05-01T11:42:16;29.90;23.40
18365;DHT22;9309;52.126;11.616;2023-05-01T11:45:04;30.20;23.40
18365;DHT22;9309;52.126;11.616;2023-05-01T11:47:31;29.30;23.80
18365;DHT22;9309;52.126;11.616;2023-05-01T11:49:59;27.50;25.80
18365;DHT22;9309;52.126;11.616;2023-05-01T11:52:26;28.10;25.10
18365;DHT22;9309;52.126;11.616;2023-05-01T11:54:54;29.40;23.70
18365;DHT22;9309;52.126;11.616;2023-05-01T11:57:20;30.00;23.10
18365;DHT22;9309;52.126;11.616;2023-05-01T11:59:47;29.90;23.40
18365;DHT22;9309;52.126;11.616;2023-05-01T12:02:17;27.80;24.30
18365;DHT22;9309;52.126;11.616;2023-05-01T12:04:45;26.30;26.10
18365;DHT22;9309;52.126;11.616;2023-05-01T12:07:19;25.70;26.80
18365;DHT22;9309;52.126;11.616;2023-05-01T12:09:47;25.60;26.60
18365;DHT22;9309;52.126;11.616;2023-05-01T12:12:16;28.60;24.20
18365;DHT22;9309;52.126;11.616;2023-05-01T12:14:43;30.50;22.30
18365;DHT22;9309;52.126;11.616;2023-05-01T12:17:10;31.10;22.30
18365;DHT22;9309;52.126;11.616;2023-05-01T12:19:45;31.60;21.20
18365;DHT22;9309;52.126;11.616;2023-05-01T12:22:13;32.80;20.60
18365;DHT22;9309;52.126;11.616;2023-05-01T12:24:48;33.10;20.40
18365;DHT22;9309;52.126;11.616;2023-05-01T12:27:17;30.90;21.90
18365;DHT22;9309;52.126;11.616;2023-05-01T12:29:44;29.80;22.70
18365;DHT22;9309;52.126;11.616;2023-05-01T12:32:13;30.40;22.30
18365;DHT22;9309;52.126;11.616;2023-05-01T12:34:40;30.80;22.10
18365;DHT22;9309;52.126;11.616;2023-05-01T12:37:08;32.90;21.40
18365;DHT22;9309;52.126;11.616;2023-05-01T12:39:37;34.10;20.30
18365;DHT22;9309;52.126;11.616;2023-05-01T12:42:10;33.00;20.30
18365;DHT22;9309;52.126;11.616;2023-05-01T12:44:39;33.70;21.20
18365;DHT22;9309;52.126;11.616;2023-05-01T12:47:07;36.50;19.00
18365;DHT22;9309;52.126;11.616;2023-05-01T12:49:36;37.00;18.40
18365;DHT22;9309;52.126;11.616;2023-05-01T12:52:05;36.40;18.50
18365;DHT22;9309;52.126;11.616;2023-05-01T12:54:33;34.50;19.90
18365;DHT22;9309;52.126;11.616;2023-05-01T12:57:05;32.10;20.60
18365;DHT22;9309;52.126;11.616;2023-05-01T12:59:34;30.80;21.90
18365;DHT22;9309;52.126;11.616;2023-05-01T13:02:03;30.90;22.00
18365;DHT22;9309;52.126;11.616;2023-05-01T13:04:30;32.20;21.30
18365;DHT22;9309;52.126;11.616;2023-05-01T13:06:58;30.00;22.60
18365;DHT22;9309;52.126;11.616;2023-05-01T13:09:26;29.80;22.90
18365;DHT22;9309;52.126;11.616;2023-05-01T13:11:59;31.40;22.30
18365;DHT22;9309;52.126;11.616;2023-05-01T13:14:27;31.10;22.10
18365;DHT22;9309;52.126;11.616;2023-05-01T13:16:55;30.70;22.60
18365;DHT22;9309;52.126;11.616;2023-05-01T13:19:27;28.70;24.40
18365;DHT22;9309;52.126;11.616;2023-05-01T13:21:55;30.10;23.50
18365;DHT22;9309;52.126;11.616;2023-05-01T13:24:22;30.90;21.80
18365;DHT22;9309;52.126;11.616;2023-05-01T13:26:56;28.20;24.60
18365;DHT22;9309;52.126;11.616;2023-05-01T13:29:25;26.30;25.70
18365;DHT22;9309;52.126;11.616;2023-05-01T13:31:52;27.50;24.40
18365;DHT22;9309;52.126;11.616;2023-05-01T13:34:24;26.20;25.90
18365;DHT22;9309;52.126;11.616;2023-05-01T13:36:54;26.90;26.10
18365;DHT22;9309;52.126;11.616;2023-05-01T13:39:21;27.70;25.00
18365;DHT22;9309;52.126;11.616;2023-05-01T13:41:48;30.00;23.00
18365;DHT22;9309;52.126;11.616;2023-05-01T13:44:16;32.00;21.70
18365;DHT22;9309;52.126;11.616;2023-05-01T13:46:44;30.50;22.40
18365;DHT22;9309;52.126;11.616;2023-05-01T13:49:11;31.00;22.70
18365;DHT22;9309;52.126;11.616;2023-05-01T13:51:40;34.10;19.80
18365;DHT22;9309;52.126;11.616;2023-05-01T13:54:09;32.20;20.50
18365;DHT22;9309;52.126;11.616;2023-05-01T13:56:38;29.30;23.30
18365;DHT22;9309;52.126;11.616;2023-05-01T13:59:06;29.20;23.80
18365;DHT22;9309;52.126;11.616;2023-05-01T14:01:38;29.90;23.50
18365;DHT22;9309;52.126;11.616;2023-05-01T14:04:07;27.00;25.50
18365;DHT22;9309;52.126;11.616;2023-05-01T14:06:35;24.30;29.40
18365;DHT22;9309;52.126;11.616;2023-05-01T14:09:06;26.40;27.20
18365;DHT22;9309;52.126;11.616;2023-05-01T14:11:41;28.10;25.20
18365;DHT22;9309;52.126;11.616;2023-05-01T14:14:09;27.20;25.80
18365;DHT22;9309;52.126;11.616;2023-05-01T14:16:36;25.70;26.90
18365;DHT22;9309;52.126;11.616;2023-05-01T14:19:06;24.90;28.50
18365;DHT22;9309;52.126;11.616;2023-05-01T14:21:38;22.90;30.30
18365;DHT22;9309;52.126;11.616;2023-05-01T14:24:06;21.70;31.90
18365;DHT22;9309;52.126;11.616;2023-05-01T14:26:34;21.10;32.90
18365;DHT22;9309;52.126;11.616;2023-05-01T14:29:02;21.20;33.00
18365;DHT22;9309;52.126;11.616;2023-05-01T14:31:29;21.70;32.90
18365;DHT22;9309;52.126;11.616;2023-05-01T14:33:57;22.30;31.90
18365;DHT22;9309;52.126;11.616;2023-05-01T14:36:26;21.50;32.10
18365;DHT22;9309;52.126;11.616;2023-05-01T14:38:55;20.80;33.20
18365;DHT22;9309;52.126;11.616;2023-05-01T14:41:22;21.00;33.80
18365;DHT22;9309;52.126;11.616;2023-05-01T14:43:51;21.90;32.40
18365;DHT22;9309;52.126;11.616;2023-05-01T14:46:29;22.50;31.80
18365;DHT22;9309;52.126;11.616;2023-05-01T14:48:56;22.60;31.80
18365;DHT22;9309;52.126;11.616;2023-05-01T14:51:23;22.10;32.50
18365;DHT22;9309;52.126;11.616;2023-05-01T14:53:50;21.20;33.20
18365;DHT22;9309;52.126;11.616;2023-05-01T14:56:17;20.60;34.00
18365;DHT22;9309;52.126;11.616;2023-05-01T14:58:44;20.40;34.50
18365;DHT22;9309;52.126;11.616;2023-05-01T15:01:13;20.50;35.50
18365;DHT22;9309;52.126;11.616;2023-05-01T15:03:40;21.00;33.60
18365;DHT22;9309;52.126;11.616;2023-05-01T15:06:08;21.30;33.00
18365;DHT22;9309;52.126;11.616;2023-05-01T15:08:35;21.70;32.90
18365;DHT22;9309;52.126;11.616;2023-05-01T15:11:03;21.80;32.50
18365;DHT22;9309;52.126;11.616;2023-05-01T15:13:30;22.10;31.80
18365;DHT22;9309;52.126;11.616;2023-05-01T15:15:57;21.10;33.20
18365;DHT22;9309;52.126;11.616;2023-05-01T15:18:25;20.90;33.40
18365;DHT22;9309;52.126;11.616;2023-05-01T15:20:52;20.90;33.70
18365;DHT22;9309;52.126;11.616;2023-05-01T15:23:18;20.90;33.30
18365;DHT22;9309;52.126;11.616;2023-05-01T15:25:45;20.60;34.50
18365;DHT22;9309;52.126;11.616;2023-05-01T15:28:15;20.30;34.70
18365;DHT22;9309;52.126;11.616;2023-05-01T15:30:44;20.60;35.00
18365;DHT22;9309;52.126;11.616;2023-05-01T15:33:11;21.20;34.00
18365;DHT22;9309;52.126;11.616;2023-05-01T15:35:39;21.30;33.70
18365;DHT22;9309;52.126;11.616;2023-05-01T15:38:05;20.80;33.90
18365;DHT22;9309;52.126;11.616;2023-05-01T15:40:32;20.40;34.20
18365;DHT22;9309;52.126;11.616;2023-05-01T15:42:59;19.80;36.10
18365;DHT22;9309;52.126;11.616;2023-05-01T15:45:26;20.20;35.50
18365;DHT22;9309;52.126;11.616;2023-05-01T15:47:53;19.90;35.00
18365;DHT22;9309;52.126;11.616;2023-05-01T15:50:20;19.70;35.30
18365;DHT22;9309;52.126;11.616;2023-05-01T15:52:49;19.70;35.90
18365;DHT22;9309;52.126;11.616;2023-05-01T15:55:16;19.80;35.10
18365;DHT22;9309;52.126;11.616;2023-05-01T15:57:44;20.10;34.90
18365;DHT22;9309;52.126;11.616;2023-05-01T16:00:11;20.50;34.30